Highland, Nebraska
Current Conditions -  °F | °C
As of 10:15 AM on Sunday 25 Jan 2015 (Local Time) from KBIE Reporting Station
Overcast Overcast  
Wind Chill: 27°   Ceiling: 1900
Heat Index: 37°   Visibility: 10mi
Dew Point: 32°   Wind: 22mph
Humidity: 81%   Direction: 350°N
Pressure: 29.93"   Gusts: 28mph
Location:  40.4797°N, 96.7417°W
Report Text: KBIE 251615Z AUTO 35019G24KT 10SM OVC019 03/00 A2993 RMK AO2 T00300000
Loading
Personal Weather Stations






























Interactive Weather Map New forecast layout! Learn more

10-Day Weather Forecast

Advertisements
Track Severe Weather on mobile